Time;durP1;ratioP1;P1;durP2;ratioP2;P2;SDS_P1;SDS_P2;PMS_P1;PMS_P2;Temp;Humidity;BMP_temperature;BMP_pressure;BME280_temperature;BME280_humidity;BME280_pressure;Samples;Min_cycle;Max_cycle;Signal;HPM_P1;HPM_P2
2024/01/10 00:01:33;;;;;;;;;;;-1.40;83.30;;;;;;4997899;28;91290;-44
2024/01/10 00:03:59;;;;;;;;;;;-1.40;83.30;;;;;;5001691;28;91913;-45
2024/01/10 00:06:24;;;;;;;;;;;-1.50;83.30;;;;;;4996425;28;92081;-47
2024/01/10 00:08:50;;;;;;;;;;;-1.40;83.40;;;;;;4994784;28;92979;-45
2024/01/10 00:11:16;;;;;;;;;;;-1.50;83.20;;;;;;4993582;28;92514;-45
2024/01/10 00:13:41;;;;;;;;;;;-1.50;83.30;;;;;;4994141;28;92043;-46
2024/01/10 00:16:07;;;;;;;;;;;-1.50;83.40;;;;;;4996293;28;92750;-46
2024/01/10 00:18:33;;;;;;;;;;;-1.50;83.40;;;;;;4996206;28;92698;-47
2024/01/10 00:20:58;;;;;;;;;;;-1.50;83.40;;;;;;4993711;28;92023;-46
2024/01/10 00:23:24;;;;;;;;;;;-1.50;83.50;;;;;;5002514;28;92916;-45
2024/01/10 00:25:50;;;;;;;;;;;-1.50;83.60;;;;;;5001607;28;91879;-45
2024/01/10 00:28:18;;;;;;;;;;;-1.50;83.50;;;;;;4999147;28;92874;-48
2024/01/10 00:30:44;;;;;;;;;;;-1.50;83.50;;;;;;4994883;28;92147;-45
2024/01/10 00:33:11;;;;;;;;;;;-1.50;83.50;;;;;;4998939;28;93949;-45
2024/01/10 00:35:36;;;;;;;;;;;-1.50;83.60;;;;;;4994834;28;92661;-45
2024/01/10 00:38:02;;;;;;;;;;;-1.50;83.60;;;;;;4997037;28;92511;-44
2024/01/10 00:40:28;;;;;;;;;;;-1.60;83.50;;;;;;4998232;28;92049;-44
2024/01/10 00:42:53;;;;;;;;;;;-1.60;83.50;;;;;;5003858;28;92627;-45
2024/01/10 00:45:19;;;;;;;;;;;-1.60;83.60;;;;;;4998566;28;92566;-45
2024/01/10 00:47:45;;;;;;;;;;;-1.60;83.70;;;;;;4994956;28;92924;-45
2024/01/10 00:50:10;;;;;;;;;;;-1.60;83.70;;;;;;4994456;28;92715;-44
2024/01/10 00:52:36;;;;;;;;;;;-1.60;83.70;;;;;;4997047;28;91996;-45
2024/01/10 00:55:01;;;;;;;;;;;-1.60;83.70;;;;;;4996952;28;92979;-44
2024/01/10 00:57:27;;;;;;;;;;;-1.60;83.70;;;;;;4991171;28;93435;-44
2024/01/10 00:59:53;;;;;;;;;;;-1.60;83.80;;;;;;4997854;28;92029;-46
2024/01/10 01:02:18;;;;;;;;;;;-1.60;83.80;;;;;;4991760;28;91974;-44
2024/01/10 01:04:44;;;;;;;;;;;-1.60;83.90;;;;;;4994285;28;92409;-44
2024/01/10 01:07:09;;;;;;;;;;;-1.60;83.80;;;;;;4998810;28;92143;-45
2024/01/10 01:09:35;;;;;;;;;;;-1.60;84.40;;;;;;4994665;28;92468;-46
2024/01/10 01:12:00;;;;;;;;;;;-1.70;83.90;;;;;;4995135;28;92098;-45
2024/01/10 01:14:26;;;;;;;;;;;-1.70;83.80;;;;;;4995659;28;91961;-45
2024/01/10 01:16:51;;;;;;;;;;;-1.70;83.80;;;;;;4994421;28;92038;-45
2024/01/10 01:19:17;;;;;;;;;;;-1.70;83.80;;;;;;4995913;28;92068;-45
2024/01/10 01:21:43;;;;;;;;;;;-1.70;83.90;;;;;;4994333;28;92826;-45
2024/01/10 01:24:08;;;;;;;;;;;-1.70;83.90;;;;;;4995790;28;93464;-45
2024/01/10 01:26:34;;;;;;;;;;;-1.70;84.00;;;;;;4992867;28;92080;-44
2024/01/10 01:29:00;;;;;;;;;;;-1.70;84.00;;;;;;5001063;28;92919;-47
2024/01/10 01:31:25;;;;;;;;;;;-1.70;84.10;;;;;;4996483;28;92043;-44
2024/01/10 01:33:51;;;;;;;;;;;-1.70;84.00;;;;;;4994323;28;92073;-46
2024/01/10 01:36:16;;;;;;;;;;;-1.70;84.00;;;;;;4993914;28;92513;-44
2024/01/10 01:38:42;;;;;;;;;;;-1.70;84.00;;;;;;4995052;28;91270;-44
2024/01/10 01:41:07;;;;;;;;;;;-1.70;84.10;;;;;;4992693;28;92026;-44
2024/01/10 01:43:33;;;;;;;;;;;-1.80;84.00;;;;;;4994614;28;92424;-44
2024/01/10 01:45:59;;;;;;;;;;;-1.70;84.00;;;;;;4995656;28;93474;-45
2024/01/10 01:48:25;;;;;;;;;;;-1.80;84.10;;;;;;4998120;28;92832;-45
2024/01/10 01:50:54;;;;;;;;;;;-1.80;84.10;;;;;;4997323;28;93718;-44
2024/01/10 01:53:20;;;;;;;;;;;-1.80;84.20;;;;;;4996586;28;92178;-45
2024/01/10 01:55:45;;;;;;;;;;;-1.80;84.20;;;;;;4997218;28;92494;-45
2024/01/10 01:58:12;;;;;;;;;;;-1.80;84.20;;;;;;4994260;28;92035;-43
2024/01/10 02:00:38;;;;;;;;;;;-1.80;84.20;;;;;;4998109;28;92843;-45
2024/01/10 02:03:04;;;;;;;;;;;-1.80;84.20;;;;;;4993459;28;91661;-47
2024/01/10 02:05:30;;;;;;;;;;;-1.80;84.20;;;;;;4995597;28;92463;-44
2024/01/10 02:07:56;;;;;;;;;;;-1.80;84.10;;;;;;4994776;28;92559;-45
2024/01/10 02:10:22;;;;;;;;;;;-1.80;84.10;;;;;;4989245;28;94511;-45
2024/01/10 02:12:48;;;;;;;;;;;-1.90;84.20;;;;;;4997314;28;91998;-45
2024/01/10 02:15:14;;;;;;;;;;;-1.80;84.20;;;;;;4994796;28;93541;-45
2024/01/10 02:17:39;;;;;;;;;;;-1.90;84.40;;;;;;4991965;28;91930;-44
2024/01/10 02:20:12;;;;;;;;;;;-1.90;84.30;;;;;;4993179;28;92063;-44
2024/01/10 02:22:39;;;;;;;;;;;-1.90;84.20;;;;;;4995219;28;93193;-45
2024/01/10 02:25:06;;;;;;;;;;;-1.90;84.30;;;;;;4995835;28;92019;-45
2024/01/10 02:27:32;;;;;;;;;;;-1.90;84.30;;;;;;4989070;28;92766;-46
2024/01/10 02:29:58;;;;;;;;;;;-1.90;84.40;;;;;;4995729;28;92425;-44
2024/01/10 02:32:23;;;;;;;;;;;-1.90;84.40;;;;;;4996377;28;92084;-44
2024/01/10 02:34:49;;;;;;;;;;;-1.90;84.40;;;;;;4996352;28;92911;-45
2024/01/10 02:37:15;;;;;;;;;;;-1.90;84.30;;;;;;4992572;28;92003;-44
2024/01/10 02:39:40;;;;;;;;;;;-1.90;84.40;;;;;;4991883;28;92008;-44
2024/01/10 02:42:06;;;;;;;;;;;-1.90;84.20;;;;;;4995356;28;92480;-45
2024/01/10 02:44:31;;;;;;;;;;;-1.90;84.40;;;;;;4995421;28;92043;-45
2024/01/10 02:46:57;;;;;;;;;;;-1.90;84.40;;;;;;4994676;28;92009;-44
2024/01/10 02:49:22;;;;;;;;;;;-1.90;84.40;;;;;;4995828;28;92252;-44
2024/01/10 02:51:48;;;;;;;;;;;-2.00;84.40;;;;;;4994840;28;91512;-45
2024/01/10 02:54:14;;;;;;;;;;;-1.90;84.40;;;;;;4994242;28;92414;-44
2024/01/10 02:56:39;;;;;;;;;;;-2.00;84.30;;;;;;4995261;28;92068;-45
2024/01/10 02:59:05;;;;;;;;;;;-2.00;84.30;;;;;;4992321;28;92964;-44
2024/01/10 03:01:30;;;;;;;;;;;-2.00;85.00;;;;;;4993441;28;92377;-45
2024/01/10 03:03:56;;;;;;;;;;;-2.00;84.40;;;;;;4995065;28;92089;-44
2024/01/10 03:06:21;;;;;;;;;;;-2.00;84.50;;;;;;4994382;28;92195;-44
2024/01/10 03:08:47;;;;;;;;;;;-2.00;84.40;;;;;;4990745;28;93574;-44
2024/01/10 03:11:12;;;;;;;;;;;-2.00;84.50;;;;;;4992906;28;92137;-44
2024/01/10 03:13:39;;;;;;;;;;;-2.00;84.40;;;;;;4995105;28;91817;-45
2024/01/10 03:16:04;;;;;;;;;;;-2.00;84.50;;;;;;4991716;28;92022;-44
2024/01/10 03:18:30;;;;;;;;;;;-2.10;84.50;;;;;;4991416;28;92138;-44
2024/01/10 03:20:56;;;;;;;;;;;-2.00;84.60;;;;;;4993879;28;93847;-45
2024/01/10 03:23:21;;;;;;;;;;;-2.00;84.60;;;;;;4993863;28;93035;-45
2024/01/10 03:25:48;;;;;;;;;;;-2.10;84.50;;;;;;5001000;28;93956;-44
2024/01/10 03:28:19;;;;;;;;;;;-2.10;84.40;;;;;;4994268;28;92458;-45
2024/01/10 03:30:45;;;;;;;;;;;-2.10;84.60;;;;;;4997796;28;92077;-44
2024/01/10 03:33:11;;;;;;;;;;;-2.10;84.60;;;;;;4999066;28;92861;-43
2024/01/10 03:35:36;;;;;;;;;;;-2.10;84.50;;;;;;4996183;28;92499;-44
2024/01/10 03:38:02;;;;;;;;;;;-2.10;84.50;;;;;;4998603;28;92129;-44
2024/01/10 03:40:28;;;;;;;;;;;-2.10;84.60;;;;;;4994319;28;92870;-44
2024/01/10 03:42:53;;;;;;;;;;;-2.10;84.50;;;;;;4998296;28;93049;-44
2024/01/10 03:45:22;;;;;;;;;;;-2.10;84.60;;;;;;4997202;28;92050;-44
2024/01/10 03:47:49;;;;;;;;;;;-2.10;84.60;;;;;;4993515;28;94465;-45
2024/01/10 03:50:16;;;;;;;;;;;-2.10;84.60;;;;;;4996651;28;92146;-45
2024/01/10 03:52:42;;;;;;;;;;;-2.10;84.60;;;;;;4997676;28;92003;-45
2024/01/10 03:55:08;;;;;;;;;;;-2.10;84.50;;;;;;4994050;28;92403;-45
2024/01/10 03:57:34;;;;;;;;;;;-2.10;84.60;;;;;;5000993;28;92057;-44
2024/01/10 04:00:00;;;;;;;;;;;-2.20;84.60;;;;;;5000712;28;92072;-44
2024/01/10 04:02:27;;;;;;;;;;;-2.20;84.50;;;;;;4992063;28;92041;-45
2024/01/10 04:04:53;;;;;;;;;;;-2.20;84.60;;;;;;4994782;28;92968;-44
2024/01/10 04:07:19;;;;;;;;;;;-2.20;84.60;;;;;;4992205;28;92005;-45
2024/01/10 04:09:44;;;;;;;;;;;-2.20;85.10;;;;;;5000604;28;92103;-44
2024/01/10 04:12:10;;;;;;;;;;;-2.20;84.60;;;;;;4993670;28;92896;-44
2024/01/10 04:14:35;;;;;;;;;;;-2.20;84.60;;;;;;4997417;28;92689;-47
2024/01/10 04:17:03;;;;;;;;;;;-2.20;84.70;;;;;;4998174;28;92132;-44
2024/01/10 04:19:29;;;;;;;;;;;-2.20;84.70;;;;;;4993978;28;92915;-44
2024/01/10 04:21:54;;;;;;;;;;;-2.20;84.60;;;;;;4997403;28;92378;-44
2024/01/10 04:24:20;;;;;;;;;;;-2.30;84.60;;;;;;4997734;28;91820;-44
2024/01/10 04:26:45;;;;;;;;;;;-2.20;84.70;;;;;;4996857;28;92699;-45
2024/01/10 04:29:11;;;;;;;;;;;-2.20;84.70;;;;;;4998415;28;91412;-43
2024/01/10 04:31:37;;;;;;;;;;;-2.30;85.20;;;;;;4993131;28;91888;-44
2024/01/10 04:34:02;;;;;;;;;;;-2.30;84.60;;;;;;5000282;28;93751;-44
2024/01/10 04:36:28;;;;;;;;;;;-2.30;84.60;;;;;;4992161;28;93057;-44
2024/01/10 04:38:53;;;;;;;;;;;-2.30;84.80;;;;;;4997262;28;92717;-45
2024/01/10 04:41:19;;;;;;;;;;;-2.30;84.70;;;;;;4996899;28;93449;-44
2024/01/10 04:43:44;;;;;;;;;;;-2.30;84.70;;;;;;4997118;28;91943;-43
2024/01/10 04:46:10;;;;;;;;;;;-2.30;84.70;;;;;;4992949;28;92519;-43
2024/01/10 04:48:36;;;;;;;;;;;-2.30;84.80;;;;;;4997018;28;92078;-44
2024/01/10 04:51:02;;;;;;;;;;;-2.30;84.70;;;;;;4996502;28;92231;-45
2024/01/10 04:53:27;;;;;;;;;;;-2.30;84.70;;;;;;4997382;28;91756;-44
2024/01/10 04:55:53;;;;;;;;;;;-2.30;84.60;;;;;;4993943;28;92110;-44
2024/01/10 04:58:18;;;;;;;;;;;-2.40;84.70;;;;;;5000060;28;92024;-44
2024/01/10 05:00:44;;;;;;;;;;;-2.40;84.70;;;;;;4995677;28;93449;-44
2024/01/10 05:03:09;;;;;;;;;;;-2.30;84.80;;;;;;4997233;28;92268;-44
2024/01/10 05:05:35;;;;;;;;;;;-2.40;84.80;;;;;;4995490;28;92401;-44
2024/01/10 05:08:01;;;;;;;;;;;-2.40;84.70;;;;;;4997177;28;92204;-45
2024/01/10 05:10:27;;;;;;;;;;;-2.40;84.80;;;;;;4992398;28;92005;-44
2024/01/10 05:12:52;;;;;;;;;;;-2.40;84.70;;;;;;4998897;28;93660;-44
2024/01/10 05:15:18;;;;;;;;;;;-2.40;84.80;;;;;;4993656;28;92082;-45
2024/01/10 05:17:43;;;;;;;;;;;-2.40;84.80;;;;;;4997037;28;91247;-44
2024/01/10 05:20:09;;;;;;;;;;;-2.40;84.80;;;;;;4993963;28;93272;-46
2024/01/10 05:22:35;;;;;;;;;;;-2.40;84.80;;;;;;4991692;28;92076;-44
2024/01/10 05:25:00;;;;;;;;;;;-2.40;84.80;;;;;;4995879;28;92998;-45
2024/01/10 05:27:26;;;;;;;;;;;-2.40;84.80;;;;;;4995472;28;92076;-44
2024/01/10 05:29:52;;;;;;;;;;;-2.40;84.80;;;;;;4996426;28;92785;-44
2024/01/10 05:32:17;;;;;;;;;;;-2.50;84.70;;;;;;4996359;28;94221;-44
2024/01/10 05:34:44;;;;;;;;;;;-2.50;84.70;;;;;;4994030;28;92066;-42
2024/01/10 05:37:09;;;;;;;;;;;-2.50;84.80;;;;;;4996040;28;92099;-44
2024/01/10 05:39:35;;;;;;;;;;;-2.50;84.70;;;;;;4994509;28;92443;-44
2024/01/10 05:42:02;;;;;;;;;;;-2.50;84.80;;;;;;4990460;28;91415;-45
2024/01/10 05:44:28;;;;;;;;;;;-2.50;85.00;;;;;;4995194;28;92258;-43
2024/01/10 05:46:54;;;;;;;;;;;-2.50;84.90;;;;;;4999943;28;92504;-44
2024/01/10 05:49:19;;;;;;;;;;;-2.50;84.90;;;;;;4995572;28;93082;-43
2024/01/10 05:51:45;;;;;;;;;;;-2.50;84.90;;;;;;4997732;28;93496;-44
2024/01/10 05:54:10;;;;;;;;;;;-2.50;84.90;;;;;;4993740;28;92070;-44
2024/01/10 05:56:36;;;;;;;;;;;-2.50;84.80;;;;;;4995773;28;92040;-44
2024/01/10 05:59:01;;;;;;;;;;;-2.60;84.80;;;;;;4990883;28;91988;-44
2024/01/10 06:01:27;;;;;;;;;;;-2.50;85.30;;;;;;4997883;28;92022;-44
2024/01/10 06:03:53;;;;;;;;;;;-2.50;84.70;;;;;;4992576;28;91959;-44
2024/01/10 06:06:18;;;;;;;;;;;-2.60;84.70;;;;;;4995865;28;91679;-45
2024/01/10 06:08:44;;;;;;;;;;;-2.60;84.80;;;;;;5002610;28;92070;-44
2024/01/10 06:11:10;;;;;;;;;;;-2.60;84.80;;;;;;4997226;28;92787;-44
2024/01/10 06:13:36;;;;;;;;;;;-2.60;84.80;;;;;;4993986;28;93032;-45
2024/01/10 06:16:02;;;;;;;;;;;-2.60;84.80;;;;;;4993388;28;92922;-44
2024/01/10 06:18:28;;;;;;;;;;;-2.60;84.80;;;;;;4993439;28;93621;-44
2024/01/10 06:20:54;;;;;;;;;;;-2.60;84.80;;;;;;4999543;28;92032;-43
2024/01/10 06:23:19;;;;;;;;;;;-2.60;84.90;;;;;;4999697;28;92974;-44
2024/01/10 06:25:45;;;;;;;;;;;-2.60;84.80;;;;;;4996262;28;92486;-44
2024/01/10 06:28:10;;;;;;;;;;;-2.60;84.90;;;;;;4997098;28;92023;-46
2024/01/10 06:30:36;;;;;;;;;;;-2.70;84.80;;;;;;4994856;28;91903;-44
2024/01/10 06:33:02;;;;;;;;;;;-2.70;84.80;;;;;;4993411;28;91839;-44
2024/01/10 06:35:27;;;;;;;;;;;-2.70;84.80;;;;;;4992491;28;92885;-44
2024/01/10 06:37:53;;;;;;;;;;;-2.60;84.90;;;;;;4996305;28;93519;-44
2024/01/10 06:40:21;;;;;;;;;;;-2.70;84.80;;;;;;4996720;28;92792;-44
2024/01/10 06:42:47;;;;;;;;;;;-2.70;84.80;;;;;;4990960;28;93045;-44
2024/01/10 06:45:13;;;;;;;;;;;-2.70;84.80;;;;;;4992981;28;93668;-45
2024/01/10 06:47:38;;;;;;;;;;;-2.70;84.80;;;;;;4992520;28;92058;-43
2024/01/10 06:50:05;;;;;;;;;;;-2.70;84.90;;;;;;4997512;28;92809;-44
2024/01/10 06:52:31;;;;;;;;;;;-2.70;84.90;;;;;;4994043;28;92096;-43
2024/01/10 06:54:57;;;;;;;;;;;-2.70;84.80;;;;;;4991145;28;92843;-44
2024/01/10 06:57:22;;;;;;;;;;;-2.70;84.80;;;;;;4992206;28;93530;-44
2024/01/10 06:59:48;;;;;;;;;;;-2.70;84.90;;;;;;4997258;28;92012;-44
2024/01/10 07:02:14;;;;;;;;;;;-2.70;84.80;;;;;;4994483;28;93747;-44
2024/01/10 07:04:39;;;;;;;;;;;-2.70;84.90;;;;;;4991499;28;93508;-44
2024/01/10 07:07:05;;;;;;;;;;;-2.70;84.90;;;;;;4992155;28;92299;-44
2024/01/10 07:09:31;;;;;;;;;;;-2.80;85.00;;;;;;4993193;28;92090;-44
2024/01/10 07:11:56;;;;;;;;;;;-2.80;85.00;;;;;;4991232;28;93553;-43
2024/01/10 07:14:22;;;;;;;;;;;-2.80;84.90;;;;;;4990279;28;92041;-44
2024/01/10 07:16:48;;;;;;;;;;;-2.80;84.80;;;;;;4994871;28;93654;-44
2024/01/10 07:19:14;;;;;;;;;;;-2.80;85.00;;;;;;4993453;28;91449;-44
2024/01/10 07:21:40;;;;;;;;;;;-2.80;85.10;;;;;;4991892;28;92146;-44
2024/01/10 07:24:06;;;;;;;;;;;-2.80;85.10;;;;;;4995196;28;93701;-43
2024/01/10 07:26:32;;;;;;;;;;;-2.80;85.10;;;;;;4999934;28;93672;-43
2024/01/10 07:28:58;;;;;;;;;;;-2.80;85.00;;;;;;4988852;28;94012;-43
2024/01/10 07:31:24;;;;;;;;;;;-2.80;85.20;;;;;;4988934;28;93504;-43
2024/01/10 07:33:49;;;;;;;;;;;-2.80;85.00;;;;;;4996420;28;92102;-44
2024/01/10 07:36:15;;;;;;;;;;;-2.90;85.10;;;;;;4993798;28;92485;-44
2024/01/10 07:38:40;;;;;;;;;;;-2.80;85.20;;;;;;4992616;28;92111;-44
2024/01/10 07:41:06;;;;;;;;;;;-2.90;85.20;;;;;;4992170;28;91853;-44
2024/01/10 07:43:31;;;;;;;;;;;-2.80;85.30;;;;;;4988986;28;91578;-44
2024/01/10 07:45:57;;;;;;;;;;;-2.90;85.20;;;;;;4995132;28;93649;-44
2024/01/10 07:48:22;;;;;;;;;;;-2.90;85.30;;;;;;4991333;28;93147;-43
2024/01/10 07:50:48;;;;;;;;;;;-2.90;85.30;;;;;;4989431;28;93659;-44
2024/01/10 07:53:13;;;;;;;;;;;-2.90;85.30;;;;;;4993069;28;92169;-44
2024/01/10 07:55:39;;;;;;;;;;;-2.90;85.40;;;;;;5000198;28;92009;-44
2024/01/10 07:58:05;;;;;;;;;;;-2.90;85.40;;;;;;4991724;28;92053;-44
2024/01/10 08:00:31;;;;;;;;;;;-2.90;85.40;;;;;;4994400;28;93136;-44
2024/01/10 08:02:58;;;;;;;;;;;-2.90;85.30;;;;;;4992068;28;92089;-43
2024/01/10 08:05:23;;;;;;;;;;;-2.90;85.40;;;;;;4996223;28;92579;-43
2024/01/10 08:07:49;;;;;;;;;;;-2.90;85.50;;;;;;4995640;28;91798;-44
2024/01/10 08:10:15;;;;;;;;;;;-2.90;85.50;;;;;;4997760;28;93171;-44
2024/01/10 08:12:44;;;;;;;;;;;-2.90;85.50;;;;;;4999910;28;92203;-45
2024/01/10 08:15:10;;;;;;;;;;;-2.90;85.50;;;;;;4990627;28;93043;-44
2024/01/10 08:17:37;;;;;;;;;;;-2.90;85.40;;;;;;4992327;28;93221;-44
2024/01/10 08:20:04;;;;;;;;;;;-2.90;85.40;;;;;;4995546;28;93074;-45
2024/01/10 08:22:29;;;;;;;;;;;-2.90;85.40;;;;;;4996988;28;93586;-44
2024/01/10 08:24:55;;;;;;;;;;;-2.90;85.40;;;;;;4997611;28;92065;-43
2024/01/10 08:27:21;;;;;;;;;;;-2.90;85.50;;;;;;4997764;28;92737;-44
2024/01/10 08:29:47;;;;;;;;;;;-2.90;85.50;;;;;;4998298;28;92535;-44
2024/01/10 08:32:12;;;;;;;;;;;-2.90;85.50;;;;;;4996194;28;91240;-44
2024/01/10 08:34:38;;;;;;;;;;;-2.90;85.50;;;;;;4993832;28;92369;-44
2024/01/10 08:37:04;;;;;;;;;;;-2.90;85.30;;;;;;4991850;28;92399;-44
2024/01/10 08:39:30;;;;;;;;;;;-2.90;85.50;;;;;;5003009;28;92990;-44
2024/01/10 08:41:59;;;;;;;;;;;-2.90;85.50;;;;;;4997982;28;92410;-44
2024/01/10 08:44:24;;;;;;;;;;;-2.90;85.40;;;;;;4987613;28;92515;-44
2024/01/10 08:46:53;;;;;;;;;;;-2.90;85.40;;;;;;4997470;28;91995;-44
2024/01/10 08:49:18;;;;;;;;;;;-2.90;85.30;;;;;;4994888;28;92469;-43
2024/01/10 08:51:46;;;;;;;;;;;-2.90;85.40;;;;;;4997908;28;92135;-45
2024/01/10 08:54:16;;;;;;;;;;;-2.90;85.50;;;;;;4995354;28;93073;-44
2024/01/10 08:56:45;;;;;;;;;;;-2.90;85.40;;;;;;4993399;28;92965;-45
2024/01/10 08:59:11;;;;;;;;;;;-2.90;85.50;;;;;;4996945;28;92092;-45
2024/01/10 09:01:38;;;;;;;;;;;-2.90;85.50;;;;;;4992909;28;93517;-44
2024/01/10 09:04:04;;;;;;;;;;;-2.90;85.50;;;;;;4995775;28;92952;-44
2024/01/10 09:06:31;;;;;;;;;;;-2.90;85.50;;;;;;4997354;28;92730;-44
2024/01/10 09:08:56;;;;;;;;;;;-3.00;85.60;;;;;;4995107;28;93597;-43
2024/01/10 09:11:22;;;;;;;;;;;-3.00;85.70;;;;;;4997640;28;92800;-43
2024/01/10 09:13:49;;;;;;;;;;;-2.90;85.60;;;;;;4996268;28;93010;-45
2024/01/10 09:16:15;;;;;;;;;;;-3.00;85.60;;;;;;4996154;28;93510;-44
2024/01/10 09:18:40;;;;;;;;;;;-3.00;85.70;;;;;;4991705;28;92141;-44
2024/01/10 09:21:06;;;;;;;;;;;-3.00;85.70;;;;;;4997027;28;92806;-44
2024/01/10 09:23:31;;;;;;;;;;;-3.00;85.80;;;;;;4996495;28;92008;-44
2024/01/10 09:25:57;;;;;;;;;;;-3.00;85.80;;;;;;4996815;28;92838;-45
2024/01/10 09:28:23;;;;;;;;;;;-3.00;85.80;;;;;;4990219;28;93481;-44
2024/01/10 09:30:49;;;;;;;;;;;-3.00;85.80;;;;;;4987708;28;92072;-45
2024/01/10 09:33:14;;;;;;;;;;;-3.00;85.90;;;;;;4992255;28;93184;-45
2024/01/10 09:35:40;;;;;;;;;;;-3.00;85.90;;;;;;4994896;28;93041;-45
2024/01/10 09:38:05;;;;;;;;;;;-3.00;85.90;;;;;;4994954;28;92113;-45
2024/01/10 09:40:31;;;;;;;;;;;-3.00;86.10;;;;;;4987138;28;92135;-45
2024/01/10 09:42:57;;;;;;;;;;;-3.00;86.10;;;;;;4999074;28;92322;-46
2024/01/10 09:45:23;;;;;;;;;;;-3.00;86.00;;;;;;4996566;28;91753;-45
2024/01/10 09:47:51;;;;;;;;;;;-3.00;86.00;;;;;;4995305;28;93541;-44
2024/01/10 09:50:17;;;;;;;;;;;-3.00;86.10;;;;;;4995101;28;92013;-45
2024/01/10 09:53:08;;;;;;;;;;;-3.00;86.00;;;;;;4998414;28;93058;-45
2024/01/10 09:55:35;;;;;;;;;;;-3.00;86.10;;;;;;4991072;28;92676;-45
2024/01/10 09:58:10;;;;;;;;;;;-3.00;86.10;;;;;;4993319;28;92186;-45
2024/01/10 10:00:36;;;;;;;;;;;-3.00;86.00;;;;;;4989864;28;91983;-45
2024/01/10 10:03:07;;;;;;;;;;;-3.00;86.20;;;;;;4996760;28;92682;-44
2024/01/10 10:05:34;;;;;;;;;;;-3.00;86.20;;;;;;4997251;28;92223;-44
2024/01/10 10:07:59;;;;;;;;;;;-3.00;86.30;;;;;;4991677;28;92645;-45
2024/01/10 10:10:26;;;;;;;;;;;-3.00;86.40;;;;;;4992922;28;91253;-45
2024/01/10 10:12:52;;;;;;;;;;;-3.00;86.30;;;;;;4996590;28;92121;-45
2024/01/10 10:15:19;;;;;;;;;;;-3.00;86.30;;;;;;4996928;28;93490;-45
2024/01/10 10:17:48;;;;;;;;;;;-3.00;86.30;;;;;;4988613;28;93133;-45
2024/01/10 10:20:21;;;;;;;;;;;-3.00;86.40;;;;;;4994340;28;93833;-45
2024/01/10 10:23:01;;;;;;;;;;;-3.00;86.30;;;;;;4994697;28;93531;-46
2024/01/10 10:25:29;;;;;;;;;;;-3.00;86.30;;;;;;4990495;28;93094;-45
2024/01/10 10:27:55;;;;;;;;;;;-3.00;86.40;;;;;;4999817;28;94077;-45
2024/01/10 10:30:20;;;;;;;;;;;-3.00;86.40;;;;;;4993479;28;91996;-48
2024/01/10 10:32:46;;;;;;;;;;;-3.00;86.50;;;;;;4992269;28;91957;-49
2024/01/10 10:35:11;;;;;;;;;;;-3.00;86.50;;;;;;4989843;28;91969;-47
2024/01/10 10:37:37;;;;;;;;;;;-3.00;86.50;;;;;;4994653;28;92398;-46
2024/01/10 10:40:02;;;;;;;;;;;-3.00;86.60;;;;;;4994112;28;92068;-44
2024/01/10 10:42:28;;;;;;;;;;;-3.00;86.60;;;;;;4991539;28;93513;-44
2024/01/10 10:44:57;;;;;;;;;;;-3.00;86.50;;;;;;4992173;28;92087;-46
2024/01/10 10:47:24;;;;;;;;;;;-3.00;86.60;;;;;;4989081;28;93709;-45
2024/01/10 10:49:52;;;;;;;;;;;-3.00;86.60;;;;;;4996149;28;93663;-45
2024/01/10 10:52:19;;;;;;;;;;;-3.00;86.70;;;;;;4995420;28;94023;-44
2024/01/10 10:54:46;;;;;;;;;;;-3.00;86.90;;;;;;4995184;28;93460;-45
2024/01/10 10:57:12;;;;;;;;;;;-3.00;86.80;;;;;;4994134;28;92061;-47
2024/01/10 10:59:38;;;;;;;;;;;-3.00;86.70;;;;;;4995956;28;91728;-46
2024/01/10 11:02:05;;;;;;;;;;;-3.00;86.80;;;;;;4997250;28;93744;-44
2024/01/10 11:04:32;;;;;;;;;;;-3.00;86.70;;;;;;4987298;28;92334;-45
2024/01/10 11:06:57;;;;;;;;;;;-3.00;86.80;;;;;;4997425;28;93068;-45
2024/01/10 11:09:23;;;;;;;;;;;-3.00;86.80;;;;;;4998307;28;92641;-45
2024/01/10 11:11:55;;;;;;;;;;;-3.00;86.80;;;;;;4995061;28;93054;-47
2024/01/10 11:14:27;;;;;;;;;;;-3.00;86.90;;;;;;4991586;28;92653;-45
2024/01/10 11:17:14;;;;;;;;;;;-3.00;86.80;;;;;;5007121;28;92517;-44
2024/01/10 11:19:40;;;;;;;;;;;-3.00;86.90;;;;;;4992222;28;93016;-45
2024/01/10 11:22:05;;;;;;;;;;;-3.00;86.90;;;;;;4993626;28;92577;-44
2024/01/10 11:24:31;;;;;;;;;;;-3.00;87.00;;;;;;4998106;28;91321;-45
2024/01/10 11:27:13;;;;;;;;;;;-3.00;86.90;;;;;;4992465;28;91751;-45
2024/01/10 11:29:45;;;;;;;;;;;-2.90;87.00;;;;;;4989324;28;93565;-45
2024/01/10 11:32:17;;;;;;;;;;;-2.90;87.00;;;;;;4992034;28;93985;-45
2024/01/10 11:34:50;;;;;;;;;;;-2.90;87.00;;;;;;4993901;28;92068;-45
2024/01/10 11:37:15;;;;;;;;;;;-2.90;86.90;;;;;;4992035;28;92059;-44
2024/01/10 11:39:42;;;;;;;;;;;-2.90;86.80;;;;;;4993822;28;92835;-45
2024/01/10 11:42:09;;;;;;;;;;;-3.00;86.90;;;;;;4992906;28;93108;-46
2024/01/10 11:44:46;;;;;;;;;;;-2.90;87.10;;;;;;4997724;28;91998;-44
2024/01/10 11:47:13;;;;;;;;;;;-2.90;87.20;;;;;;4996507;28;92125;-45
2024/01/10 11:49:38;;;;;;;;;;;-2.90;87.00;;;;;;4998873;28;93948;-44
2024/01/10 11:52:04;;;;;;;;;;;-2.90;87.00;;;;;;4996058;28;92041;-46
2024/01/10 11:54:36;;;;;;;;;;;-2.90;87.00;;;;;;4999920;28;91989;-44
2024/01/10 11:57:02;;;;;;;;;;;-2.90;87.00;;;;;;4991096;28;93040;-46
2024/01/10 11:59:27;;;;;;;;;;;-2.90;86.90;;;;;;4990841;28;93775;-45
2024/01/10 12:01:54;;;;;;;;;;;-2.90;87.10;;;;;;4993885;28;92602;-45
2024/01/10 12:04:19;;;;;;;;;;;-2.90;87.00;;;;;;4993305;28;92006;-45
2024/01/10 12:06:45;;;;;;;;;;;-2.90;87.10;;;;;;4994457;28;93908;-45
2024/01/10 12:09:13;;;;;;;;;;;-2.90;87.00;;;;;;4988945;28;92494;-46
2024/01/10 12:11:40;;;;;;;;;;;-2.90;87.30;;;;;;4997265;28;91993;-46
2024/01/10 12:14:06;;;;;;;;;;;-2.90;87.00;;;;;;4996038;28;92989;-46
2024/01/10 12:16:35;;;;;;;;;;;-2.80;87.00;;;;;;4991952;28;93471;-46
2024/01/10 12:19:00;;;;;;;;;;;-2.80;87.20;;;;;;4995962;28;92721;-45
2024/01/10 12:21:26;;;;;;;;;;;-2.80;87.00;;;;;;4992995;28;93366;-46
2024/01/10 12:23:51;;;;;;;;;;;-2.90;87.00;;;;;;4999636;28;92153;-45
2024/01/10 12:26:18;;;;;;;;;;;-2.80;87.10;;;;;;4997245;28;92017;-45
2024/01/10 12:28:53;;;;;;;;;;;-2.80;87.40;;;;;;4996801;28;92714;-45
2024/01/10 12:31:18;;;;;;;;;;;-2.80;87.30;;;;;;4996327;28;91997;-46
2024/01/10 12:33:44;;;;;;;;;;;-2.80;87.40;;;;;;4994286;28;92022;-46
2024/01/10 12:36:10;;;;;;;;;;;-2.80;87.10;;;;;;5000582;28;92556;-44
2024/01/10 12:38:37;;;;;;;;;;;-2.80;87.20;;;;;;4997894;28;91365;-45
2024/01/10 12:41:04;;;;;;;;;;;-2.80;87.40;;;;;;4996504;28;92516;-44
2024/01/10 12:43:29;;;;;;;;;;;-2.80;87.30;;;;;;4994873;28;92154;-44
2024/01/10 12:46:05;;;;;;;;;;;-2.80;87.10;;;;;;4995912;28;93111;-46
2024/01/10 12:48:31;;;;;;;;;;;-2.80;87.20;;;;;;4995081;28;93746;-44
2024/01/10 12:51:00;;;;;;;;;;;-2.80;87.20;;;;;;4995875;28;92056;-46
2024/01/10 12:53:28;;;;;;;;;;;-2.70;87.00;;;;;;4996794;28;92352;-46
2024/01/10 12:55:54;;;;;;;;;;;-2.80;87.00;;;;;;4997126;28;94407;-44
2024/01/10 12:58:20;;;;;;;;;;;-2.80;87.10;;;;;;4996486;28;92087;-46
2024/01/10 13:00:45;;;;;;;;;;;-2.80;87.10;;;;;;4995092;28;92652;-45
2024/01/10 13:03:12;;;;;;;;;;;-2.70;87.20;;;;;;4991250;28;93326;-44
2024/01/10 13:05:37;;;;;;;;;;;-2.70;87.10;;;;;;4996732;28;92120;-44
2024/01/10 13:08:05;;;;;;;;;;;-2.70;87.00;;;;;;4997247;28;92552;-45
2024/01/10 13:10:31;;;;;;;;;;;-2.70;87.20;;;;;;4999104;28;93023;-45
2024/01/10 13:12:56;;;;;;;;;;;-2.70;87.10;;;;;;4991808;28;92862;-46
2024/01/10 13:15:22;;;;;;;;;;;-2.70;87.20;;;;;;4991856;28;92412;-45
2024/01/10 13:17:47;;;;;;;;;;;-2.70;87.20;;;;;;4995683;28;92245;-45
2024/01/10 13:20:13;;;;;;;;;;;-2.70;87.00;;;;;;4999770;28;92853;-45
2024/01/10 13:22:39;;;;;;;;;;;-2.70;87.10;;;;;;4995033;28;92562;-45
2024/01/10 13:25:05;;;;;;;;;;;-2.70;86.90;;;;;;4993174;28;91953;-46
2024/01/10 13:27:31;;;;;;;;;;;-2.60;87.00;;;;;;4993953;28;92719;-49
2024/01/10 13:29:57;;;;;;;;;;;-2.60;86.70;;;;;;4990416;28;92412;-45
2024/01/10 13:32:23;;;;;;;;;;;-2.60;87.00;;;;;;4993697;28;92145;-45
2024/01/10 13:34:48;;;;;;;;;;;-2.60;87.70;;;;;;4996218;28;93374;-45
2024/01/10 13:37:14;;;;;;;;;;;-2.60;87.00;;;;;;4996149;28;92055;-44
2024/01/10 13:39:42;;;;;;;;;;;-2.60;87.10;;;;;;4992434;28;92037;-46
2024/01/10 13:42:10;;;;;;;;;;;-2.60;87.00;;;;;;4994185;28;93682;-46
2024/01/10 13:44:36;;;;;;;;;;;-2.60;87.10;;;;;;5003018;28;93189;-46
2024/01/10 13:47:03;;;;;;;;;;;-2.60;87.20;;;;;;4995474;28;92471;-46
2024/01/10 13:49:29;;;;;;;;;;;-2.50;86.90;;;;;;4998528;28;92135;-44
2024/01/10 13:51:54;;;;;;;;;;;-2.60;87.00;;;;;;4990499;28;91657;-45
2024/01/10 13:54:21;;;;;;;;;;;-2.50;87.10;;;;;;4991704;28;92532;-46
2024/01/10 13:56:46;;;;;;;;;;;-2.50;87.20;;;;;;4997163;28;92121;-44
2024/01/10 13:59:12;;;;;;;;;;;-2.50;87.00;;;;;;4991550;28;93468;-45
2024/01/10 14:01:38;;;;;;;;;;;-2.50;87.30;;;;;;4994788;28;92954;-46
2024/01/10 14:04:03;;;;;;;;;;;-2.50;87.30;;;;;;4995560;28;92088;-45
2024/01/10 14:06:29;;;;;;;;;;;-2.50;87.10;;;;;;4997893;28;92796;-45
2024/01/10 14:08:54;;;;;;;;;;;-2.50;87.10;;;;;;4994087;28;92101;-46
2024/01/10 14:11:20;;;;;;;;;;;-2.50;87.10;;;;;;4995845;28;92003;-45